createdAt,value
2022-09-20T00:01:21.739Z,99843.60
2022-09-20T00:03:54.643Z,99850.27
2022-09-20T00:06:28.004Z,99847.05
2022-09-20T00:09:01.458Z,99847.92
2022-09-20T00:11:34.236Z,99846.73
2022-09-20T00:14:08.804Z,99850.50
2022-09-20T00:16:42.382Z,99856.30
2022-09-20T00:19:21.467Z,99858.19
2022-09-20T00:21:52.362Z,99852.53
2022-09-20T00:24:23.740Z,99857.65
2022-09-20T00:26:55.275Z,99854.52
2022-09-20T00:29:26.464Z,99859.97
2022-09-20T00:31:57.481Z,99860.27
2022-09-20T00:34:46.651Z,99859.39
2022-09-20T00:37:17.601Z,99858.88
2022-09-20T00:39:48.487Z,99860.73
2022-09-20T00:42:19.509Z,99861.40
2022-09-20T00:44:58.271Z,99863.45
2022-09-20T00:47:36.376Z,99864.81
2022-09-20T00:50:15.335Z,99863.30
2022-09-20T00:52:52.678Z,99860.58
2022-09-20T00:55:25.296Z,99858.24
2022-09-20T00:57:56.878Z,99859.45
2022-09-20T01:00:29.765Z,99855.73
2022-09-20T01:03:43.434Z,99862.92
2022-09-20T01:06:18.234Z,99862.26
2022-09-20T01:09:10.953Z,99861.25
2022-09-20T01:12:06.268Z,99858.90
2022-09-20T01:14:42.663Z,99857.58
2022-09-20T01:17:15.191Z,99858.48
2022-09-20T01:19:58.369Z,99860.73
2022-09-20T01:23:12.759Z,99861.77
2022-09-20T01:26:37.773Z,99861.46
2022-09-20T01:29:20.987Z,99867.82
2022-09-20T01:31:57.921Z,99868.40
2022-09-20T01:34:35.538Z,99874.23
2022-09-20T01:37:15.154Z,99870.34
2022-09-20T01:39:55.363Z,99873.27
2022-09-20T01:42:55.329Z,99874.98
2022-09-20T01:45:35.672Z,99878.93
2022-09-20T01:48:25.390Z,99875.53
2022-09-20T01:51:55.681Z,99871.98
2022-09-20T01:54:58.091Z,99872.71
2022-09-20T01:58:19.827Z,99874.63
2022-09-20T02:01:15.584Z,99881.33
2022-09-20T02:04:05.611Z,99881.35
2022-09-20T02:06:50.029Z,99877.96
2022-09-20T02:09:58.523Z,99877.98
2022-09-20T02:13:04.358Z,99882.93
2022-09-20T02:16:07.013Z,99884.29
2022-09-20T02:19:17.122Z,99885.31
2022-09-20T02:21:56.655Z,99886.65
2022-09-20T02:24:39.291Z,99887.34
2022-09-20T02:27:24.370Z,99885.07
2022-09-20T02:30:14.151Z,99888.66
2022-09-20T02:33:11.671Z,99887.46
2022-09-20T02:36:03.464Z,99888.32
2022-09-20T02:38:51.911Z,99888.66
2022-09-20T02:42:05.286Z,99889.85
2022-09-20T02:44:59.578Z,99898.22
2022-09-20T02:47:51.227Z,99894.12
2022-09-20T02:50:42.022Z,99893.25
2022-09-20T02:53:27.728Z,99895.30
2022-09-20T02:56:08.700Z,99893.73
2022-09-20T02:58:53.622Z,99891.50
2022-09-20T03:01:54.049Z,99893.89
2022-09-20T03:04:46.400Z,99894.73
2022-09-20T03:07:30.760Z,99894.03
2022-09-20T03:10:16.140Z,99899.15
2022-09-20T03:13:04.426Z,99901.20
2022-09-20T03:15:50.211Z,99906.67
2022-09-20T03:18:28.322Z,99908.70
2022-09-20T03:21:11.022Z,99911.10
2022-09-20T03:23:56.103Z,99918.10
2022-09-20T03:26:57.842Z,99916.70
2022-09-20T03:30:02.783Z,99911.20
2022-09-20T03:32:50.848Z,99909.66
2022-09-20T03:35:37.368Z,99904.17
2022-09-20T03:38:39.298Z,99914.59
2022-09-20T03:41:32.241Z,99915.94
2022-09-20T03:44:17.995Z,99919.34
2022-09-20T03:46:48.334Z,99921.53
2022-09-20T03:50:07.034Z,99919.81
2022-09-20T03:53:04.355Z,99922.69
2022-09-20T03:55:59.629Z,99920.48
2022-09-20T03:58:48.789Z,99920.98
2022-09-20T04:01:45.366Z,99923.54
2022-09-20T04:04:37.534Z,99921.14
2022-09-20T04:07:24.178Z,99922.66
2022-09-20T04:10:08.040Z,99925.73
2022-09-20T04:12:51.112Z,99928.30
2022-09-20T04:15:53.048Z,99934.95
2022-09-20T04:18:32.207Z,99937.16
2022-09-20T04:21:30.310Z,99942.42
2022-09-20T04:24:22.781Z,99947.90
2022-09-20T04:26:58.588Z,99951.65
2022-09-20T04:29:59.376Z,99947.73
2022-09-20T04:32:37.629Z,99947.90
2022-09-20T04:35:44.972Z,99949.25
2022-09-20T04:39:10.106Z,99950.09
2022-09-20T04:42:43.394Z,99955.89
2022-09-20T04:45:58.918Z,99962.67
2022-09-20T04:49:15.692Z,99971.04
2022-09-20T04:52:44.943Z,99974.09
2022-09-20T04:55:50.195Z,99972.73
2022-09-20T04:58:49.617Z,99975.28
2022-09-20T05:01:56.442Z,99976.13
2022-09-20T05:05:26.959Z,99982.95
2022-09-20T05:08:46.832Z,99984.27
2022-09-20T05:11:48.084Z,99992.41
2022-09-20T05:15:23.596Z,99995.61
2022-09-20T05:18:19.709Z,100004.96
2022-09-20T05:21:18.403Z,100003.38
2022-09-20T05:24:33.246Z,100015.60
2022-09-20T05:27:26.568Z,100018.94
2022-09-20T05:30:19.703Z,100018.88
2022-09-20T05:33:29.830Z,100016.23
2022-09-20T05:36:13.660Z,100011.34
2022-09-20T05:39:19.189Z,100018.24
2022-09-20T05:42:21.018Z,100014.75
2022-09-20T05:45:06.039Z,100024.94
2022-09-20T05:47:50.367Z,100027.45
2022-09-20T05:50:39.108Z,100028.96
2022-09-20T05:53:39.574Z,100033.36
2022-09-20T05:56:21.222Z,100034.48
2022-09-20T05:59:02.726Z,100031.83
2022-09-20T06:01:46.517Z,100031.95
2022-09-20T06:04:21.577Z,100038.59
2022-09-20T06:07:05.367Z,100034.44
2022-09-20T06:09:59.442Z,100034.73
2022-09-20T06:12:48.628Z,100040.00
2022-09-20T06:15:29.182Z,100041.69
2022-09-20T06:18:12.217Z,100041.48
2022-09-20T06:20:53.805Z,100045.91
2022-09-20T06:23:25.665Z,100050.14
2022-09-20T06:26:07.940Z,100049.41
2022-09-20T06:28:45.105Z,100053.10
2022-09-20T06:31:17.158Z,100061.27
2022-09-20T06:33:54.542Z,100060.72
2022-09-20T06:36:49.396Z,100058.47
2022-09-20T06:40:10.224Z,100065.11
2022-09-20T06:42:44.530Z,100070.05
2022-09-20T06:45:15.596Z,100075.50
2022-09-20T06:47:47.135Z,100077.89
2022-09-20T06:50:19.691Z,100077.64
2022-09-20T06:52:52.538Z,100077.59
2022-09-20T06:55:29.310Z,100082.79
2022-09-20T06:58:01.933Z,100086.13
2022-09-20T07:00:37.137Z,100085.23
2022-09-20T07:03:08.974Z,100087.07
2022-09-20T07:05:40.801Z,100090.27
2022-09-20T07:08:12.707Z,100090.38
2022-09-20T07:10:44.148Z,100092.42
2022-09-20T07:13:14.926Z,100092.05
2022-09-20T07:15:52.274Z,100093.05
2022-09-20T07:18:23.120Z,100091.25
2022-09-20T07:20:56.216Z,100096.50
2022-09-20T07:23:27.679Z,100099.17
2022-09-20T07:26:03.849Z,100104.09
2022-09-20T07:28:36.870Z,100111.05
2022-09-20T07:31:08.295Z,100108.95
2022-09-20T07:33:39.367Z,100113.54
2022-09-20T07:36:13.018Z,100118.27
2022-09-20T07:38:50.530Z,100119.08
2022-09-20T07:41:23.133Z,100123.48
2022-09-20T07:43:54.155Z,100125.11
2022-09-20T07:46:25.025Z,100126.92
2022-09-20T07:48:58.116Z,100128.70
2022-09-20T07:51:29.182Z,100128.20
2022-09-20T07:54:00.584Z,100130.28
2022-09-20T07:56:31.427Z,100132.14
2022-09-20T07:59:02.518Z,100134.27
2022-09-20T08:01:35.382Z,100138.63
2022-09-20T08:04:08.548Z,100142.27
2022-09-20T08:06:42.246Z,100145.41
2022-09-20T08:09:14.491Z,100147.30
2022-09-20T08:11:46.778Z,100144.87
2022-09-20T08:14:20.056Z,100147.75
2022-09-20T08:16:52.537Z,100148.05
2022-09-20T08:19:24.517Z,100150.44
2022-09-20T08:21:56.015Z,100150.21
2022-09-20T08:24:28.330Z,100151.80
2022-09-20T08:26:59.415Z,100151.17
2022-09-20T08:29:30.257Z,100153.02
2022-09-20T08:32:02.300Z,100155.48
2022-09-20T08:34:33.225Z,100156.39
2022-09-20T08:37:04.646Z,100157.38
2022-09-20T08:42:37.926Z,100161.98
2022-09-20T08:45:35.104Z,100159.11
2022-09-20T08:48:14.451Z,100160.41
2022-09-20T08:50:45.579Z,100161.67
2022-09-20T08:53:21.251Z,100160.14
2022-09-20T08:55:52.625Z,100160.84
2022-09-20T08:58:23.468Z,100163.79
2022-09-20T09:00:55.820Z,100166.72
2022-09-20T09:03:28.291Z,100170.45
2022-09-20T09:06:01.337Z,100169.41
2022-09-20T09:08:38.763Z,100169.58
2022-09-20T09:11:14.712Z,100171.82
2022-09-20T09:13:53.703Z,100171.99
2022-09-20T09:16:33.686Z,100176.11
2022-09-20T09:19:37.046Z,100174.04
2022-09-20T09:22:09.526Z,100178.30
2022-09-20T09:24:40.501Z,100182.39
2022-09-20T09:27:18.878Z,100185.48
2022-09-20T09:29:54.194Z,100183.97
2022-09-20T09:32:29.364Z,100188.44
2022-09-20T09:35:18.588Z,100189.44
2022-09-20T09:37:57.636Z,100188.05
2022-09-20T09:40:29.021Z,100190.52
2022-09-20T09:43:02.907Z,100192.43
2022-09-20T09:45:38.676Z,100187.99
2022-09-20T09:48:21.347Z,100187.37
2022-09-20T09:51:07.718Z,100188.99
2022-09-20T09:53:43.498Z,100186.69
2022-09-20T09:56:27.048Z,100191.77
2022-09-20T09:59:24.915Z,100191.13
2022-09-20T10:02:04.463Z,100191.98
2022-09-20T10:04:42.638Z,100194.16
2022-09-20T10:07:21.696Z,100193.42
2022-09-20T10:10:09.445Z,100194.02
2022-09-20T10:12:53.291Z,100196.73
2022-09-20T10:15:35.586Z,100197.98
2022-09-20T10:18:24.143Z,100194.04
2022-09-20T10:21:08.517Z,100196.34
2022-09-20T10:24:03.694Z,100194.11
2022-09-20T10:27:05.419Z,100193.40
2022-09-20T10:29:53.103Z,100188.39
2022-09-20T10:32:46.326Z,100189.20
2022-09-20T10:35:30.958Z,100189.43
2022-09-20T10:38:16.368Z,100186.66
2022-09-20T10:41:20.532Z,100181.75
2022-09-20T10:44:05.518Z,100188.39
2022-09-20T10:46:47.212Z,100184.05
2022-09-20T10:49:28.988Z,100183.94
2022-09-20T10:52:17.758Z,100185.23
2022-09-20T10:55:04.811Z,100189.80
2022-09-20T10:58:00.288Z,100185.61
2022-09-20T11:00:44.629Z,100188.98
2022-09-20T11:03:26.844Z,100188.04
2022-09-20T11:06:14.479Z,100187.05
2022-09-20T11:08:50.866Z,100179.42
2022-09-20T11:11:24.739Z,100179.81
2022-09-20T11:14:03.128Z,100176.59
2022-09-20T11:16:41.983Z,100182.52
2022-09-20T11:19:29.557Z,100178.23
2022-09-20T11:22:08.019Z,100181.14
2022-09-20T11:24:44.060Z,100186.23
2022-09-20T11:27:19.950Z,100185.39
2022-09-20T11:29:57.342Z,100188.63
2022-09-20T11:32:32.939Z,100191.58
2022-09-20T11:35:08.000Z,100192.76
2022-09-20T11:37:39.110Z,100190.44
2022-09-20T11:40:17.617Z,100185.48
2022-09-20T11:42:49.435Z,100190.98
2022-09-20T11:45:23.994Z,100189.97
2022-09-20T11:48:01.893Z,100190.61
2022-09-20T11:50:57.289Z,100186.14
2022-09-20T11:53:43.899Z,100188.73
2022-09-20T11:56:21.252Z,100190.27
2022-09-20T11:58:53.900Z,100188.94
2022-09-20T12:01:32.381Z,100189.38
2022-09-20T12:04:31.205Z,100191.56
2022-09-20T12:07:07.820Z,100187.66
2022-09-20T12:09:41.928Z,100186.85
2022-09-20T12:12:33.336Z,100187.00
2022-09-20T12:15:07.010Z,100183.87
2022-09-20T12:18:15.592Z,100185.30
2022-09-20T12:21:15.368Z,100181.14
2022-09-20T12:24:11.746Z,100181.01
2022-09-20T12:26:42.579Z,100177.79
2022-09-20T12:29:55.325Z,100179.64
2022-09-20T12:32:50.635Z,100177.23
2022-09-20T12:35:59.294Z,100172.61
2022-09-20T12:38:46.609Z,100168.80
2022-09-20T12:41:27.934Z,100165.23
2022-09-20T12:44:24.764Z,100166.50
2022-09-20T12:46:59.439Z,100166.55
2022-09-20T12:50:08.358Z,100168.30
2022-09-20T12:53:00.672Z,100165.77
2022-09-20T12:55:40.113Z,100168.17
2022-09-20T12:58:23.159Z,100168.55
2022-09-20T13:01:32.959Z,100171.59
2022-09-20T13:04:38.670Z,100169.69
2022-09-20T13:07:43.613Z,100170.89
2022-09-20T13:10:40.949Z,100173.77
2022-09-20T13:13:33.443Z,100176.92
2022-09-20T13:16:07.611Z,100188.98
2022-09-20T13:18:41.365Z,100186.95
2022-09-20T13:21:12.546Z,100188.88
2022-09-20T13:23:52.476Z,100192.43
2022-09-20T13:26:28.004Z,100197.08
2022-09-20T13:29:00.440Z,100201.95
2022-09-20T13:31:35.910Z,100209.59
2022-09-20T13:34:21.754Z,100214.64
2022-09-20T13:36:56.390Z,100220.91
2022-09-20T13:39:32.290Z,100227.63
2022-09-20T13:42:07.094Z,100227.88
2022-09-20T13:44:39.389Z,100231.48
2022-09-20T13:47:29.316Z,100226.61
2022-09-20T13:50:18.416Z,100225.11
2022-09-20T13:52:51.765Z,100218.57
2022-09-20T13:55:31.970Z,100211.92
2022-09-20T13:58:07.555Z,100209.15
2022-09-20T14:00:46.756Z,100205.48
2022-09-20T14:03:24.173Z,100202.43
2022-09-20T14:05:58.542Z,100203.64
2022-09-20T14:08:37.929Z,100201.73
2022-09-20T14:11:14.453Z,100202.40
2022-09-20T14:13:48.018Z,100202.31
2022-09-20T14:16:22.942Z,100203.05
2022-09-20T14:18:54.495Z,100198.78
2022-09-20T14:21:28.333Z,100198.80
2022-09-20T14:24:02.360Z,100197.64
2022-09-20T14:26:36.371Z,100200.02
2022-09-20T14:29:33.676Z,100199.81
2022-09-20T14:32:11.938Z,100199.75
2022-09-20T14:34:45.086Z,100195.79
2022-09-20T14:37:19.406Z,100200.27
2022-09-20T14:39:54.440Z,100201.47
2022-09-20T14:42:28.294Z,100202.15
2022-09-20T14:44:59.902Z,100204.80
2022-09-20T14:47:37.801Z,100208.82
2022-09-20T14:50:26.135Z,100217.81
2022-09-20T14:53:07.937Z,100231.48
2022-09-20T14:55:42.277Z,100230.68
2022-09-20T14:58:15.668Z,100235.55
2022-09-20T15:00:53.137Z,100237.61
2022-09-20T15:03:29.365Z,100237.36
2022-09-20T15:06:00.969Z,100239.20
2022-09-20T15:08:32.019Z,100240.02
2022-09-20T15:11:03.917Z,100243.80
2022-09-20T15:13:36.209Z,100243.86
2022-09-20T15:16:08.359Z,100259.07
2022-09-20T15:18:43.902Z,100264.02
2022-09-20T15:21:15.194Z,100260.61
2022-09-20T15:23:47.440Z,100260.09
2022-09-20T15:26:51.182Z,100259.58
2022-09-20T15:29:22.707Z,100254.45
2022-09-20T15:31:54.341Z,100247.36
2022-09-20T15:34:39.404Z,100250.06
2022-09-20T15:37:10.708Z,100260.01
2022-09-20T15:39:41.636Z,100269.71
2022-09-20T15:42:12.594Z,100274.98
2022-09-20T15:44:44.807Z,100278.00
2022-09-20T15:47:36.675Z,100272.45
2022-09-20T15:50:10.949Z,100278.66
2022-09-20T15:52:47.365Z,100279.01
2022-09-20T15:55:33.686Z,100279.52
2022-09-20T15:58:06.544Z,100276.55
2022-09-20T16:00:40.658Z,100270.67
2022-09-20T16:03:11.963Z,100274.23
2022-09-20T16:05:44.857Z,100273.48
2022-09-20T16:08:16.381Z,100279.25
2022-09-20T16:10:56.384Z,100285.16
2022-09-20T16:14:01.263Z,100285.65
2022-09-20T16:16:39.737Z,100286.77
2022-09-20T16:19:20.795Z,100284.84
2022-09-20T16:22:13.246Z,100284.45
2022-09-20T16:24:44.927Z,100284.86
2022-09-20T16:27:19.387Z,100288.19
2022-09-20T16:29:50.866Z,100281.94
2022-09-20T16:32:24.807Z,100284.05
2022-09-20T16:34:58.024Z,100280.52
2022-09-20T16:37:33.162Z,100278.20
2022-09-20T16:40:05.349Z,100276.58
2022-09-20T16:42:38.108Z,100275.14
2022-09-20T16:45:10.396Z,100276.71
2022-09-20T16:48:08.422Z,100281.08
2022-09-20T16:50:39.954Z,100287.48
2022-09-20T16:53:11.132Z,100290.80
2022-09-20T16:55:46.494Z,100298.38
2022-09-20T16:58:18.340Z,100301.00
2022-09-20T17:00:50.069Z,100304.99
2022-09-20T17:03:27.191Z,100310.34
2022-09-20T17:06:12.758Z,100313.12
2022-09-20T17:08:47.677Z,100320.33
2022-09-20T17:11:24.063Z,100321.91
2022-09-20T17:13:57.561Z,100322.44
2022-09-20T17:16:30.924Z,100325.38
2022-09-20T17:19:04.814Z,100325.76
2022-09-20T17:21:57.417Z,100329.80
2022-09-20T17:24:31.405Z,100336.02
2022-09-20T17:27:04.920Z,100343.42
2022-09-20T17:29:39.547Z,100348.42
2022-09-20T17:32:19.522Z,100351.89
2022-09-20T17:35:38.255Z,100355.04
2022-09-20T17:38:10.570Z,100355.23
2022-09-20T17:40:45.495Z,100354.06
2022-09-20T17:43:18.177Z,100353.39
2022-09-20T17:45:49.902Z,100355.64
2022-09-20T17:48:23.218Z,100355.50
2022-09-20T17:51:00.996Z,100355.88
2022-09-20T17:53:36.763Z,100357.29
2022-09-20T17:56:10.495Z,100363.50
2022-09-20T17:58:42.300Z,100364.42
2022-09-20T18:01:15.445Z,100367.04
2022-09-20T18:03:49.173Z,100369.67
2022-09-20T18:06:22.711Z,100372.33
2022-09-20T18:08:59.223Z,100374.09
2022-09-20T18:11:34.537Z,100377.36
2022-09-20T18:14:10.333Z,100377.73
2022-09-20T18:16:43.414Z,100375.90
2022-09-20T18:19:33.242Z,100379.89
2022-09-20T18:22:05.501Z,100383.38
2022-09-20T18:24:38.526Z,100388.05
2022-09-20T18:27:09.956Z,100391.02
2022-09-20T18:29:41.157Z,100391.27
2022-09-20T18:32:12.663Z,100391.67
2022-09-20T18:34:44.000Z,100397.19
2022-09-20T18:37:38.180Z,100400.52
2022-09-20T18:43:04.528Z,100406.58
2022-09-20T18:45:55.201Z,100410.56
2022-09-20T18:53:38.628Z,100417.28
2022-09-20T18:56:26.934Z,100416.95
2022-09-20T18:59:21.061Z,100417.66
2022-09-20T19:02:07.771Z,100417.52
2022-09-20T19:05:12.184Z,100420.65
2022-09-20T19:07:58.193Z,100421.55
2022-09-20T19:10:40.673Z,100427.92
2022-09-20T19:13:26.597Z,100424.02
2022-09-20T19:16:13.119Z,100426.63
2022-09-20T19:19:29.757Z,100430.23
2022-09-20T19:22:13.866Z,100431.77
2022-09-20T19:25:43.884Z,100432.11
2022-09-20T19:28:18.979Z,100434.01
2022-09-20T19:30:51.090Z,100434.67
2022-09-20T19:33:23.261Z,100437.25
2022-09-20T19:35:59.315Z,100435.70
2022-09-20T19:38:43.106Z,100435.70
2022-09-20T19:41:29.634Z,100437.23
2022-09-20T19:44:14.529Z,100438.09
2022-09-20T19:47:01.004Z,100441.02
2022-09-20T19:49:42.421Z,100437.95
2022-09-20T19:52:16.475Z,100443.40
2022-09-20T19:54:49.635Z,100443.73
2022-09-20T19:57:48.486Z,100443.03
2022-09-20T20:00:22.704Z,100446.79
2022-09-20T20:02:55.484Z,100447.62
2022-09-20T20:05:29.436Z,100446.08
2022-09-20T20:08:21.411Z,100447.77
2022-09-20T20:11:03.098Z,100447.78
2022-09-20T20:13:59.376Z,100454.48
2022-09-20T20:16:39.402Z,100450.05
2022-09-20T20:19:30.248Z,100450.94
2022-09-20T20:22:09.557Z,100455.57
2022-09-20T20:24:47.967Z,100456.80
2022-09-20T20:27:42.819Z,100460.23
2022-09-20T20:30:15.063Z,100459.23
2022-09-20T20:32:47.061Z,100462.84
2022-09-20T20:35:39.357Z,100470.25
2022-09-20T20:38:11.700Z,100469.76
2022-09-20T20:40:43.758Z,100471.00
2022-09-20T20:43:18.454Z,100472.05
2022-09-20T20:45:54.087Z,100469.50
2022-09-20T20:48:47.954Z,100470.06
2022-09-20T20:51:24.276Z,100468.55
2022-09-20T20:54:10.523Z,100466.02
2022-09-20T20:56:42.321Z,100466.05
2022-09-20T20:59:14.456Z,100466.27
2022-09-20T21:01:46.295Z,100471.77
2022-09-20T21:04:42.548Z,100472.66
2022-09-20T21:07:34.171Z,100473.22
2022-09-20T21:10:25.992Z,100475.31
2022-09-20T21:12:58.680Z,100478.59
2022-09-20T21:15:50.338Z,100477.59
2022-09-20T21:18:21.832Z,100478.43
2022-09-20T21:21:36.333Z,100480.02
2022-09-20T21:24:28.107Z,100478.45
2022-09-20T21:27:06.029Z,100477.59
2022-09-20T21:29:57.508Z,100481.33
2022-09-20T21:32:50.984Z,100478.94
2022-09-20T21:35:24.035Z,100480.46
2022-09-20T21:37:58.332Z,100481.69
2022-09-20T21:40:38.389Z,100482.03
2022-09-20T21:43:12.073Z,100484.09
2022-09-20T21:46:06.223Z,100484.29
2022-09-20T21:48:41.140Z,100483.13
2022-09-20T21:51:29.241Z,100483.84
2022-09-20T21:54:21.020Z,100489.34
2022-09-20T21:56:59.350Z,100493.29
2022-09-20T22:00:13.878Z,100491.95
2022-09-20T22:03:14.571Z,100494.58
2022-09-20T22:06:14.117Z,100494.60
2022-09-20T22:09:09.382Z,100497.70
2022-09-20T22:12:00.940Z,100499.27
2022-09-20T22:14:59.670Z,100501.02
2022-09-20T22:18:05.198Z,100507.34
2022-09-20T22:20:36.434Z,100506.70
2022-09-20T22:23:07.911Z,100508.42
2022-09-20T22:25:39.044Z,100505.89
2022-09-20T22:28:44.138Z,100504.88
2022-09-20T22:31:17.516Z,100500.95
2022-09-20T22:34:09.592Z,100504.06
2022-09-20T22:36:48.957Z,100500.65
2022-09-20T22:39:20.224Z,100503.05
2022-09-20T22:42:14.245Z,100501.70
2022-09-20T22:44:48.807Z,100498.95
2022-09-20T22:47:20.299Z,100500.65
2022-09-20T22:49:51.227Z,100502.02
2022-09-20T22:52:24.928Z,100499.45
2022-09-20T22:54:56.368Z,100501.67
2022-09-20T22:57:27.316Z,100499.27
2022-09-20T22:59:59.571Z,100499.27
2022-09-20T23:02:30.757Z,100498.59
2022-09-20T23:05:01.901Z,100497.38
2022-09-20T23:07:33.502Z,100498.91
2022-09-20T23:10:04.894Z,100496.33
2022-09-20T23:12:44.174Z,100496.98
2022-09-20T23:15:37.357Z,100495.95
2022-09-20T23:18:29.257Z,100495.59
2022-09-20T23:21:05.578Z,100497.78
2022-09-20T23:23:48.460Z,100496.40
2022-09-20T23:26:21.052Z,100498.60
2022-09-20T23:28:56.967Z,100501.83
2022-09-20T23:31:37.749Z,100500.11
2022-09-20T23:34:10.979Z,100502.83
2022-09-20T23:37:02.236Z,100504.52
2022-09-20T23:39:33.431Z,100508.47
2022-09-20T23:42:04.397Z,100508.14
2022-09-20T23:44:44.200Z,100508.98
2022-09-20T23:47:15.391Z,100505.91
2022-09-20T23:49:53.802Z,100510.36
2022-09-20T23:52:45.156Z,100505.56
2022-09-20T23:55:19.638Z,100505.56
2022-09-20T23:57:54.532Z,100510.50
